Arboles, CO (81121)

4:49 PM MDT on August 31, 2015 (GMT -0600)
Crowbar Creek | | Change Station
CLOSE
Current Station
Personal Weather Station
Location: Bayfield, CO
Elevation: 6979 ft
Nearby Weather Stations

Elev 6979 ft 37.21 °N, 107.54 °W | Updated 10 seconds ago

Partly Cloudy
Partly Cloudy
81.2 °F
Feels Like 80 °F
N
17.3
Wind Variable Wind from West
Gusts 17.3 mph

Today
High -- | Low -- °F
--% Chance of Precip.
Yesterday
High -- | Low -- °F
Precip. -- in
6:39 AM 7:40 PM
Waning Gibbous, 93% visible
Pressure 30.19 in
Visibility 10.0 miles
Clouds Clear
Heat Index 80 °F
Dew Point 44 °F
Humidity 27%
Rainfall 0.00 in
Snow Depth Not available.
UV 5 out of 12
Pollen 6.90 out of 12
Air Quality Not available.
Flu Activity Not available.
SPECI KDRO 312234Z AUTO 32008G17KT 10SM CLR 27/01 A3019 RMK AO2 WSHFT 2214 T02670006
Pressure 30.19 in
Visibility 10.0 miles
Clouds Clear
Heat Index 80 °F
Dew Point 44 °F
Humidity 27%
Rainfall 0.00 in
Snow Depth Not available.
UV 5 out of 12
Pollen 6.90 out of 12
Air Quality Not available.
Flu Activity Not available.
SPECI KDRO 312234Z AUTO 32008G17KT 10SM CLR 27/01 A3019 RMK AO2 WSHFT 2214 T02670006

10-Day Weather Forecast

×

Almanac

Astronomy

Aug. 31, 2015 Rise Set
Actual Time
Civil Twilight
Nautical Twilight
Astronomical Twilight
Moon
Length of Visible Light
Length of Day
Tomorrow will be .
, % of the Moon is Illuminated

Today's Extremes

State Highs State Lows

Community

WunderPhotos

Upload Photos

1,851,390 photos uploaded!

WunderBlogs® & News

Nearby

Air Quality

  Air Quality AQ Index Pollutant
Not available.

Snow Depth

Station Depth Elevation

Earthquake Activity

City Distance Mag. Time & Date
Minimum magnitude displayed is 2.5.

Coastal Water Temperatures

Place Temperature

Stations

Nearby Weather Stations

Station Location Temp. Windchill Dew Point Humidity Wind Precip. Elev Updated Type